createdAt,value
2022-12-25T00:01:45.328Z,0.76
2022-12-25T00:04:14.896Z,0.81
2022-12-25T00:06:44.216Z,0.86
2022-12-25T00:09:13.807Z,0.93
2022-12-25T00:11:44.547Z,0.96
2022-12-25T00:14:14.618Z,0.97
2022-12-25T00:16:45.010Z,0.99
2022-12-25T00:19:14.536Z,1.01
2022-12-25T00:21:43.476Z,1.00
2022-12-25T00:24:12.726Z,0.97
2022-12-25T00:26:42.982Z,1.00
2022-12-25T00:29:14.912Z,1.00
2022-12-25T00:31:43.922Z,1.02
2022-12-25T00:34:13.259Z,1.04
2022-12-25T00:36:42.494Z,1.10
2022-12-25T00:39:12.327Z,1.14
2022-12-25T00:41:58.516Z,1.14
2022-12-25T00:44:29.186Z,1.12
2022-12-25T00:46:58.041Z,1.13
2022-12-25T00:49:28.408Z,1.13
2022-12-25T00:51:57.489Z,1.16
2022-12-25T00:54:26.848Z,1.17
2022-12-25T00:56:55.931Z,1.20
2022-12-25T00:59:25.147Z,1.23
2022-12-25T01:01:55.459Z,1.24
2022-12-25T01:04:24.918Z,1.25
2022-12-25T01:06:53.810Z,1.24
2022-12-25T01:09:40.871Z,1.19
2022-12-25T01:12:10.002Z,1.21
2022-12-25T01:14:39.439Z,1.23
2022-12-25T01:17:10.370Z,1.22
2022-12-25T01:19:39.949Z,1.20
2022-12-25T01:22:09.196Z,1.23
2022-12-25T01:24:38.621Z,1.24
2022-12-25T01:27:07.512Z,1.24
2022-12-25T01:29:36.852Z,1.26
2022-12-25T01:32:07.128Z,1.30
2022-12-25T01:34:38.400Z,1.31
2022-12-25T01:37:07.754Z,1.36
2022-12-25T01:39:37.010Z,1.38
2022-12-25T01:42:06.196Z,1.41
2022-12-25T01:45:27.793Z,1.42
2022-12-25T01:47:56.854Z,1.42
2022-12-25T01:50:28.826Z,1.42
2022-12-25T01:52:58.889Z,1.41
2022-12-25T01:55:28.504Z,1.38
2022-12-25T01:57:58.010Z,1.41
2022-12-25T02:00:27.254Z,1.44
2022-12-25T02:02:57.055Z,1.44
2022-12-25T02:05:30.698Z,1.43
2022-12-25T02:08:03.020Z,1.46
2022-12-25T02:10:32.359Z,1.47
2022-12-25T02:13:02.189Z,1.46
2022-12-25T02:15:41.435Z,1.46
2022-12-25T02:18:15.306Z,1.42
2022-12-25T02:21:01.668Z,1.41
2022-12-25T02:23:53.574Z,1.44
2022-12-25T02:26:42.600Z,1.46
2022-12-25T02:29:22.716Z,1.46
2022-12-25T02:31:56.231Z,1.47
2022-12-25T02:34:35.639Z,1.42
2022-12-25T02:37:13.152Z,1.46
2022-12-25T02:40:01.042Z,1.47
2022-12-25T02:42:57.671Z,1.46
2022-12-25T02:45:50.859Z,1.46
2022-12-25T02:48:41.716Z,1.42
2022-12-25T02:51:28.721Z,1.38
2022-12-25T02:54:18.820Z,1.40
2022-12-25T02:57:07.885Z,1.41
2022-12-25T02:59:59.056Z,1.42
2022-12-25T03:02:48.319Z,1.41
2022-12-25T03:05:41.043Z,1.41
2022-12-25T03:08:14.902Z,1.38
2022-12-25T03:11:08.715Z,1.39
2022-12-25T03:13:40.928Z,1.37
2022-12-25T03:16:29.654Z,1.35
2022-12-25T03:19:00.920Z,1.34
2022-12-25T03:21:48.127Z,1.39
2022-12-25T03:24:34.580Z,1.41
2022-12-25T03:27:03.963Z,1.39
2022-12-25T03:30:00.737Z,1.37
2022-12-25T03:32:37.734Z,1.39
2022-12-25T03:35:24.425Z,1.38
2022-12-25T03:38:28.802Z,1.35
2022-12-25T03:41:19.338Z,1.26
2022-12-25T03:44:13.482Z,1.26
2022-12-25T03:47:21.712Z,1.26
2022-12-25T03:50:13.207Z,1.14
2022-12-25T03:53:02.719Z,1.09
2022-12-25T03:55:56.461Z,1.11
2022-12-25T03:58:45.503Z,1.17
2022-12-25T04:01:32.538Z,1.17
2022-12-25T04:04:19.070Z,1.10
2022-12-25T04:07:05.645Z,1.07
2022-12-25T04:09:53.520Z,1.01
2022-12-25T04:12:40.215Z,0.97
2022-12-25T04:15:27.889Z,0.90
2022-12-25T04:18:14.555Z,0.88
2022-12-25T04:21:00.987Z,0.86
2022-12-25T04:24:02.071Z,0.84
2022-12-25T04:26:49.648Z,0.90
2022-12-25T04:29:36.378Z,0.93
2022-12-25T04:32:23.237Z,0.96
2022-12-25T04:35:10.174Z,0.97
2022-12-25T04:37:39.156Z,0.95
2022-12-25T04:40:10.988Z,0.94
2022-12-25T04:42:41.294Z,0.97
2022-12-25T04:45:11.752Z,1.00
2022-12-25T04:47:40.805Z,1.04
2022-12-25T04:50:10.452Z,1.09
2022-12-25T04:52:41.582Z,1.11
2022-12-25T04:55:12.087Z,1.10
2022-12-25T04:57:42.401Z,1.12
2022-12-25T05:00:12.576Z,1.20
2022-12-25T05:02:41.571Z,1.24
2022-12-25T05:05:11.154Z,1.28
2022-12-25T05:07:40.071Z,1.31
2022-12-25T05:10:10.036Z,1.34
2022-12-25T05:12:39.008Z,1.32
2022-12-25T05:15:10.631Z,1.33
2022-12-25T05:17:39.721Z,1.37
2022-12-25T05:20:09.751Z,1.41
2022-12-25T05:22:38.723Z,1.44
2022-12-25T05:25:08.765Z,1.48
2022-12-25T05:27:37.742Z,1.51
2022-12-25T05:30:07.986Z,1.52
2022-12-25T05:32:38.291Z,1.55
2022-12-25T05:35:08.942Z,1.58
2022-12-25T05:37:38.265Z,1.59
2022-12-25T05:40:08.632Z,1.57
2022-12-25T05:42:37.595Z,1.56
2022-12-25T05:45:07.891Z,1.57
2022-12-25T05:47:38.283Z,1.59
2022-12-25T05:50:09.012Z,1.61
2022-12-25T05:52:37.759Z,1.61
2022-12-25T05:55:07.716Z,1.61
2022-12-25T05:57:37.227Z,1.59
2022-12-25T06:00:07.778Z,1.54
2022-12-25T06:02:42.813Z,1.51
2022-12-25T06:05:12.370Z,1.49
2022-12-25T06:07:41.321Z,1.42
2022-12-25T06:10:11.486Z,1.43
2022-12-25T06:12:40.482Z,1.40
2022-12-25T06:15:10.720Z,1.39
2022-12-25T06:17:41.074Z,1.38
2022-12-25T06:20:11.025Z,1.40
2022-12-25T06:22:40.167Z,1.40
2022-12-25T06:25:10.219Z,1.40
2022-12-25T06:27:39.339Z,1.35
2022-12-25T06:30:10.034Z,1.38
2022-12-25T06:32:39.322Z,1.37
2022-12-25T06:35:10.651Z,1.34
2022-12-25T06:37:39.626Z,1.35
2022-12-25T06:40:09.869Z,1.32
2022-12-25T06:42:38.824Z,1.31
2022-12-25T06:45:08.885Z,1.31
2022-12-25T06:47:39.171Z,1.21
2022-12-25T06:50:10.476Z,1.18
2022-12-25T06:52:39.481Z,1.20
2022-12-25T06:55:09.502Z,1.22
2022-12-25T06:57:38.730Z,1.26
2022-12-25T07:00:09.476Z,1.31
2022-12-25T07:02:39.519Z,1.22
2022-12-25T07:05:10.726Z,1.24
2022-12-25T07:07:39.733Z,1.21
2022-12-25T07:10:10.127Z,1.19
2022-12-25T07:12:39.156Z,1.10
2022-12-25T07:15:11.084Z,1.08
2022-12-25T07:17:40.076Z,1.10
2022-12-25T07:20:11.600Z,1.10
2022-12-25T07:22:40.516Z,1.07
2022-12-25T07:25:10.320Z,1.03
2022-12-25T07:27:39.357Z,1.10
2022-12-25T07:30:09.884Z,1.08
2022-12-25T07:32:39.001Z,1.06
2022-12-25T07:35:08.903Z,1.03
2022-12-25T07:37:39.327Z,0.98
2022-12-25T07:40:10.068Z,1.05
2022-12-25T07:42:39.181Z,1.09
2022-12-25T07:45:09.162Z,0.99
2022-12-25T07:47:38.113Z,0.97
2022-12-25T07:50:08.728Z,1.00
2022-12-25T07:52:43.415Z,1.01
2022-12-25T07:55:13.120Z,1.01
2022-12-25T07:57:42.201Z,1.06
2022-12-25T08:00:12.711Z,1.13
2022-12-25T08:02:41.971Z,1.19
2022-12-25T08:05:11.482Z,1.23
2022-12-25T08:07:42.088Z,1.27
2022-12-25T08:10:11.154Z,1.31
2022-12-25T08:12:40.347Z,1.33
2022-12-25T08:15:10.240Z,1.39
2022-12-25T08:17:39.528Z,1.43
2022-12-25T08:20:09.811Z,1.48
2022-12-25T08:22:39.138Z,1.52
2022-12-25T08:25:10.521Z,1.53
2022-12-25T08:27:39.843Z,1.54
2022-12-25T08:30:10.017Z,1.58
2022-12-25T08:32:39.331Z,1.63
2022-12-25T08:35:09.113Z,1.68
2022-12-25T08:37:38.398Z,1.73
2022-12-25T08:40:09.914Z,1.74
2022-12-25T08:42:39.297Z,1.74
2022-12-25T08:45:09.579Z,1.79
2022-12-25T08:47:38.865Z,1.80
2022-12-25T08:50:09.170Z,1.85
2022-12-25T08:52:38.715Z,1.88
2022-12-25T08:55:09.838Z,1.89
2022-12-25T08:57:39.129Z,1.92
2022-12-25T09:00:09.515Z,1.93
2022-12-25T09:02:38.977Z,1.98
2022-12-25T09:05:09.530Z,2.02
2022-12-25T09:07:38.827Z,2.03
2022-12-25T09:10:10.425Z,2.06
2022-12-25T09:12:39.996Z,2.03
2022-12-25T09:15:09.487Z,2.01
2022-12-25T09:17:38.750Z,1.98
2022-12-25T09:20:09.166Z,1.99
2022-12-25T09:22:38.516Z,1.99
2022-12-25T09:25:09.775Z,2.01
2022-12-25T09:27:39.329Z,2.04
2022-12-25T09:30:09.511Z,2.07
2022-12-25T09:32:40.308Z,2.05
2022-12-25T09:35:10.256Z,2.05
2022-12-25T09:37:39.480Z,2.07
2022-12-25T09:40:15.349Z,2.09
2022-12-25T09:42:45.381Z,2.09
2022-12-25T09:45:19.305Z,2.10
2022-12-25T09:47:50.345Z,2.12
2022-12-25T09:50:24.606Z,2.10
2022-12-25T09:53:01.831Z,2.07
2022-12-25T09:55:37.103Z,2.08
2022-12-25T09:58:13.475Z,2.06
2022-12-25T10:00:46.704Z,2.02
2022-12-25T10:03:29.108Z,2.05
2022-12-25T10:06:12.029Z,2.07
2022-12-25T10:09:07.673Z,2.07
2022-12-25T10:12:02.196Z,2.07
2022-12-25T10:14:40.234Z,2.09
2022-12-25T10:17:32.003Z,2.12
2022-12-25T10:20:11.599Z,2.12
2022-12-25T10:22:45.401Z,2.12
2022-12-25T10:25:20.423Z,2.14
2022-12-25T10:27:55.280Z,2.17
2022-12-25T10:30:27.329Z,2.21
2022-12-25T10:32:58.746Z,2.27
2022-12-25T10:35:30.755Z,2.28
2022-12-25T10:38:03.158Z,2.33
2022-12-25T10:40:45.215Z,2.34
2022-12-25T10:43:22.529Z,2.31
2022-12-25T10:45:51.928Z,2.30
2022-12-25T10:48:27.604Z,2.30
2022-12-25T10:50:57.524Z,2.30
2022-12-25T10:53:28.445Z,2.32
2022-12-25T10:56:03.338Z,2.33
2022-12-25T10:58:34.720Z,2.32
2022-12-25T11:01:06.428Z,2.34
2022-12-25T11:03:37.735Z,2.35
2022-12-25T11:06:21.350Z,2.35
2022-12-25T11:08:54.724Z,2.34
2022-12-25T11:11:24.720Z,2.29
2022-12-25T11:13:58.683Z,2.25
2022-12-25T11:16:30.599Z,2.30
2022-12-25T11:19:01.034Z,2.34
2022-12-25T11:21:31.881Z,2.37
2022-12-25T11:24:02.920Z,2.36
2022-12-25T11:26:47.163Z,2.38
2022-12-25T11:29:24.703Z,2.38
2022-12-25T11:31:57.233Z,2.38
2022-12-25T11:34:32.073Z,2.38
2022-12-25T11:37:03.485Z,2.42
2022-12-25T11:39:35.437Z,2.45
2022-12-25T11:42:11.153Z,2.45
2022-12-25T11:44:52.240Z,2.49
2022-12-25T11:47:32.163Z,2.54
2022-12-25T11:50:06.076Z,2.54
2022-12-25T11:52:38.590Z,2.56
2022-12-25T11:55:18.075Z,2.58
2022-12-25T11:57:52.531Z,2.57
2022-12-25T12:00:23.158Z,2.55
2022-12-25T12:02:58.877Z,2.54
2022-12-25T12:05:35.040Z,2.54
2022-12-25T12:08:07.464Z,2.51
2022-12-25T12:10:49.877Z,2.53
2022-12-25T12:13:32.629Z,2.54
2022-12-25T12:16:04.001Z,2.55
2022-12-25T12:18:35.728Z,2.55
2022-12-25T12:21:08.467Z,2.55
2022-12-25T12:23:49.756Z,2.58
2022-12-25T12:26:22.838Z,2.55
2022-12-25T12:28:54.454Z,2.56
2022-12-25T12:31:25.470Z,2.57
2022-12-25T12:33:58.604Z,2.52
2022-12-25T12:36:36.005Z,2.44
2022-12-25T12:39:06.875Z,2.37
2022-12-25T12:41:47.191Z,2.34
2022-12-25T12:44:18.968Z,2.33
2022-12-25T12:46:57.541Z,2.32
2022-12-25T12:49:29.461Z,2.31
2022-12-25T12:52:06.880Z,2.32
2022-12-25T12:54:53.521Z,2.28
2022-12-25T12:57:32.762Z,2.21
2022-12-25T13:00:09.765Z,2.18
2022-12-25T13:03:07.009Z,2.26
2022-12-25T13:05:49.917Z,2.31
2022-12-25T13:08:44.352Z,2.32
2022-12-25T13:11:19.593Z,2.37
2022-12-25T13:13:50.443Z,2.39
2022-12-25T13:16:26.654Z,2.42
2022-12-25T13:18:58.235Z,2.41
2022-12-25T13:21:34.944Z,2.39
2022-12-25T13:24:10.709Z,2.40
2022-12-25T13:26:41.424Z,2.37
2022-12-25T13:29:25.161Z,2.35
2022-12-25T13:31:55.901Z,2.32
2022-12-25T13:34:32.279Z,2.31
2022-12-25T13:37:09.971Z,2.33
2022-12-25T13:39:49.127Z,2.34
2022-12-25T13:42:21.016Z,2.33
2022-12-25T13:44:53.426Z,2.34
2022-12-25T13:47:31.032Z,2.35
2022-12-25T13:50:20.376Z,2.41
2022-12-25T13:52:49.920Z,2.40
2022-12-25T13:55:24.412Z,2.44
2022-12-25T13:57:57.590Z,2.41
2022-12-25T14:00:34.956Z,2.42
2022-12-25T14:03:05.333Z,2.44
2022-12-25T14:05:43.385Z,2.43
2022-12-25T14:08:19.821Z,2.44
2022-12-25T14:10:52.393Z,2.40
2022-12-25T14:13:24.740Z,2.40
2022-12-25T14:15:54.547Z,2.40
2022-12-25T14:18:29.799Z,2.42
2022-12-25T14:21:04.188Z,2.44
2022-12-25T14:23:42.188Z,2.46
2022-12-25T14:26:17.386Z,2.47
2022-12-25T14:28:50.688Z,2.49
2022-12-25T14:31:21.087Z,2.49
2022-12-25T14:33:51.568Z,2.50
2022-12-25T14:36:22.290Z,2.51
2022-12-25T14:38:58.982Z,2.52
2022-12-25T14:41:38.036Z,2.52
2022-12-25T14:44:23.440Z,2.48
2022-12-25T14:46:52.589Z,2.48
2022-12-25T14:49:25.635Z,2.47
2022-12-25T14:51:56.218Z,2.47
2022-12-25T14:54:26.038Z,2.47
2022-12-25T14:56:56.416Z,2.43
2022-12-25T14:59:28.124Z,2.42
2022-12-25T15:02:01.087Z,2.39
2022-12-25T15:04:31.082Z,2.39
2022-12-25T15:07:07.286Z,2.37
2022-12-25T15:09:37.779Z,2.33
2022-12-25T15:12:07.410Z,2.35
2022-12-25T15:14:38.425Z,2.32
2022-12-25T15:17:07.412Z,2.35
2022-12-25T15:19:39.232Z,2.35
2022-12-25T15:22:13.970Z,2.32
2022-12-25T15:24:43.394Z,2.33
2022-12-25T15:27:17.170Z,2.31
2022-12-25T15:30:09.314Z,2.30
2022-12-25T15:32:35.508Z,2.30
2022-12-25T15:35:05.079Z,2.32
2022-12-25T15:37:35.458Z,2.27
2022-12-25T15:40:06.610Z,2.26
2022-12-25T15:42:36.197Z,2.25
2022-12-25T15:45:06.275Z,2.24
2022-12-25T15:47:35.194Z,2.23
2022-12-25T15:50:04.577Z,2.26
2022-12-25T15:52:34.924Z,2.25
2022-12-25T15:55:04.319Z,2.28
2022-12-25T15:57:35.157Z,2.30
2022-12-25T16:00:05.405Z,2.30
2022-12-25T16:02:40.765Z,2.32
2022-12-25T16:05:10.818Z,2.32
2022-12-25T16:07:41.666Z,2.33
2022-12-25T16:10:16.877Z,2.35
2022-12-25T16:12:46.395Z,2.37
2022-12-25T16:15:17.110Z,2.35
2022-12-25T16:17:45.806Z,2.33
2022-12-25T16:20:15.334Z,2.31
2022-12-25T16:22:45.719Z,2.29
2022-12-25T16:25:17.523Z,2.32
2022-12-25T16:27:47.072Z,2.34
2022-12-25T16:30:18.672Z,2.37
2022-12-25T16:32:50.944Z,2.40
2022-12-25T16:35:20.345Z,2.41
2022-12-25T16:37:50.746Z,2.43
2022-12-25T16:40:20.312Z,2.43
2022-12-25T16:42:49.230Z,2.42
2022-12-25T16:45:18.480Z,2.44
2022-12-25T16:47:47.425Z,2.46
2022-12-25T16:50:17.125Z,2.47
2022-12-25T16:52:46.139Z,2.48
2022-12-25T16:55:16.724Z,2.47
2022-12-25T16:57:51.237Z,2.45
2022-12-25T17:00:21.768Z,2.46
2022-12-25T17:02:50.953Z,2.48
2022-12-25T17:05:20.418Z,2.49
2022-12-25T17:07:49.596Z,2.50
2022-12-25T17:10:21.457Z,2.51
2022-12-25T17:12:50.682Z,2.48
2022-12-25T17:15:20.120Z,2.44
2022-12-25T17:17:49.104Z,2.44
2022-12-25T17:20:18.493Z,2.45
2022-12-25T17:22:50.905Z,2.44
2022-12-25T17:25:21.560Z,2.46
2022-12-25T17:27:50.617Z,2.46
2022-12-25T17:30:19.856Z,2.44
2022-12-25T17:32:48.801Z,2.44
2022-12-25T17:35:20.788Z,2.42
2022-12-25T17:37:49.763Z,2.41
2022-12-25T17:40:20.550Z,2.38
2022-12-25T17:42:52.774Z,2.42
2022-12-25T17:45:22.144Z,2.43
2022-12-25T17:47:54.930Z,2.45
2022-12-25T17:50:25.585Z,2.46
2022-12-25T17:52:54.621Z,2.47
2022-12-25T17:55:25.162Z,2.49
2022-12-25T17:57:54.137Z,2.49
2022-12-25T18:00:23.559Z,2.49
2022-12-25T18:02:52.797Z,2.48
2022-12-25T18:05:22.359Z,2.48
2022-12-25T18:07:51.343Z,2.48
2022-12-25T18:10:20.893Z,2.46
2022-12-25T18:12:51.191Z,2.46
2022-12-25T18:15:20.551Z,2.45
2022-12-25T18:17:49.413Z,2.43
2022-12-25T18:20:18.849Z,2.42
2022-12-25T18:22:47.812Z,2.43
2022-12-25T18:25:17.075Z,2.43
2022-12-25T18:27:46.001Z,2.43
2022-12-25T18:30:16.986Z,2.40
2022-12-25T18:32:46.039Z,2.41
2022-12-25T18:35:15.413Z,2.39
2022-12-25T18:37:44.394Z,2.40
2022-12-25T18:40:14.035Z,2.35
2022-12-25T18:42:43.405Z,2.37
2022-12-25T18:45:15.873Z,2.35
2022-12-25T18:47:47.009Z,2.39
2022-12-25T18:50:16.804Z,2.41
2022-12-25T18:52:47.613Z,2.43
2022-12-25T18:55:20.257Z,2.46
2022-12-25T18:57:49.544Z,2.50
2022-12-25T19:00:22.274Z,2.52
2022-12-25T19:02:51.935Z,2.52
2022-12-25T19:05:21.525Z,2.52
2022-12-25T19:07:50.457Z,2.54
2022-12-25T19:10:19.871Z,2.56
2022-12-25T19:12:48.862Z,2.59
2022-12-25T19:15:19.429Z,2.63
2022-12-25T19:17:48.168Z,2.62
2022-12-25T19:20:17.812Z,2.64
2022-12-25T19:22:46.738Z,2.68
2022-12-25T19:25:16.104Z,2.68
2022-12-25T19:27:45.238Z,2.69
2022-12-25T19:30:14.924Z,2.70
2022-12-25T19:32:45.191Z,2.72
2022-12-25T19:35:14.507Z,2.67
2022-12-25T19:37:43.435Z,2.69
2022-12-25T19:40:13.911Z,2.69
2022-12-25T19:42:42.867Z,2.72
2022-12-25T19:45:12.907Z,2.73
2022-12-25T19:47:44.350Z,2.71
2022-12-25T19:50:15.107Z,2.70
2022-12-25T19:52:45.502Z,2.71
2022-12-25T19:55:14.823Z,2.70
2022-12-25T19:57:43.696Z,2.64
2022-12-25T20:00:13.616Z,2.65
2022-12-25T20:02:42.654Z,2.68
2022-12-25T20:05:11.993Z,2.66
2022-12-25T20:07:42.357Z,2.68
2022-12-25T20:10:11.914Z,2.70
2022-12-25T20:12:40.762Z,2.71
2022-12-25T20:15:11.097Z,2.74
2022-12-25T20:17:40.052Z,2.73
2022-12-25T20:20:09.954Z,2.76
2022-12-25T20:22:41.314Z,2.78
2022-12-25T20:25:11.426Z,2.79
2022-12-25T20:27:40.472Z,2.77
2022-12-25T20:30:10.573Z,2.78
2022-12-25T20:32:43.661Z,2.82
2022-12-25T20:35:16.597Z,2.83
2022-12-25T20:37:46.961Z,2.79
2022-12-25T20:40:16.595Z,2.72
2022-12-25T20:42:45.480Z,2.72
2022-12-25T20:45:14.715Z,2.73
2022-12-25T20:47:43.648Z,2.74
2022-12-25T20:50:12.876Z,2.74
2022-12-25T20:52:41.804Z,2.73
2022-12-25T20:55:14.034Z,2.72
2022-12-25T20:57:43.621Z,2.77
2022-12-25T21:00:14.339Z,2.76
2022-12-25T21:02:43.785Z,2.78
2022-12-25T21:05:13.135Z,2.75
2022-12-25T21:07:42.080Z,2.74
2022-12-25T21:10:12.741Z,2.78
2022-12-25T21:12:41.528Z,2.78
2022-12-25T21:15:15.422Z,2.81
2022-12-25T21:17:44.891Z,2.76
2022-12-25T21:20:14.093Z,2.79
2022-12-25T21:22:43.242Z,2.73
2022-12-25T21:25:13.850Z,2.73
2022-12-25T21:27:42.672Z,2.72
2022-12-25T21:30:15.503Z,2.74
2022-12-25T21:33:02.491Z,2.73
2022-12-25T21:35:33.102Z,2.72
2022-12-25T21:38:02.433Z,2.72
2022-12-25T21:40:36.031Z,2.76
2022-12-25T21:43:05.692Z,2.75
2022-12-25T21:45:35.722Z,2.74
2022-12-25T21:48:05.254Z,2.77
2022-12-25T21:51:19.834Z,2.81
2022-12-25T21:53:49.274Z,2.83
2022-12-25T21:56:20.169Z,2.84
2022-12-25T21:58:51.539Z,2.89
2022-12-25T22:01:22.213Z,2.92
2022-12-25T22:03:52.788Z,2.94
2022-12-25T22:06:39.536Z,2.95
2022-12-25T22:09:09.551Z,2.98
2022-12-25T22:11:57.738Z,3.00
2022-12-25T22:14:51.144Z,3.03
2022-12-25T22:17:41.654Z,3.00
2022-12-25T22:20:13.149Z,2.99
2022-12-25T22:22:42.588Z,3.00
2022-12-25T22:25:12.063Z,2.99
2022-12-25T22:27:44.517Z,2.99
2022-12-25T22:30:15.893Z,2.98
2022-12-25T22:32:46.368Z,3.00
2022-12-25T22:35:16.935Z,3.00
2022-12-25T22:37:48.268Z,3.02
2022-12-25T22:40:17.775Z,3.02
2022-12-25T22:42:48.455Z,3.00
2022-12-25T22:45:18.095Z,3.04
2022-12-25T22:47:48.191Z,3.05
2022-12-25T22:50:18.020Z,3.07
2022-12-25T22:52:47.319Z,3.07
2022-12-25T22:55:19.214Z,3.07
2022-12-25T22:57:50.399Z,3.11
2022-12-25T23:00:19.572Z,3.12
2022-12-25T23:02:48.978Z,3.12
2022-12-25T23:05:18.980Z,3.13
2022-12-25T23:07:48.231Z,3.14
2022-12-25T23:10:17.122Z,3.12
2022-12-25T23:13:03.659Z,3.12
2022-12-25T23:15:34.101Z,3.14
2022-12-25T23:18:20.625Z,3.16
2022-12-25T23:21:08.240Z,3.16
2022-12-25T23:23:54.633Z,3.19
2022-12-25T23:26:23.987Z,3.18
2022-12-25T23:29:10.841Z,3.18
2022-12-25T23:31:43.573Z,3.17
2022-12-25T23:34:13.396Z,3.17
2022-12-25T23:36:42.302Z,3.17
2022-12-25T23:39:11.686Z,3.18
2022-12-25T23:41:41.497Z,3.19
2022-12-25T23:44:11.437Z,3.12
2022-12-25T23:46:52.738Z,3.14
2022-12-25T23:49:23.402Z,3.15
2022-12-25T23:51:52.525Z,3.16
2022-12-25T23:54:23.954Z,3.18
2022-12-25T23:56:53.302Z,3.19
2022-12-25T23:59:22.752Z,3.21
